Highland, Illinois
Current Conditions -  °F | °C
As of 9:58 AM on Thursday 29 Jan 2015 (Local Time) from KBLV Reporting Station
Overcast Overcast  
Wind Chill: 33°   Ceiling: 2500
Heat Index: 41°   Visibility: 10mi
Dew Point: 32°   Wind: 15mph
Humidity: 72%   Direction: 310°NW
Pressure: 30.08"   Gusts: 23mph
Location:  38.74°N, 89.68°W
Report Text: KBLV 291558Z AUTO 31013G20KT 10SM OVC025 05/00 A3008 RMK AO2 PK WND 31029/50 SLP192 T00480001
Loading
Personal Weather Stations






























Interactive Weather Map New forecast layout! Learn more

10-Day Weather Forecast

Advertisements
Track Severe Weather on mobile